Strona główna
METAR-TAF:

METAR-TAF

Lotnisko :

Port lotniczy Oslo-Gardermoen

Oslo, Norwegia

Szerokość geograficzna: 60-12N, Długość geograficzna: 011-05E, wysokość: 208 m

Aktualna obserwacja pogody

Raport powstał 44 minut temu, godzina 21:50 UTC
Wiatr 7 kt od południe
Temperatura 5°C
Wilgotność 75%
Ciśnienie 995 hPa
Widzialność 10 km lub więcej
Brak chmur poniżej 1500 m i brak chmur cumulonimbus

METAR: ENGM 222150Z 19007KT CAVOK 05/01 Q0995

czas: 00:34 (22:34 UTC)

Prognoza

Prognoza ważna od 22 godzina 18 UTC do 23 godzina 18 UTC
Wiatr 12 kt od południowy zachód
Widzialność 10 km lub więcej
Brak chmur poniżej 1500 m i brak chmur cumulonimbus
Stopniowe zmiany
od 22 godzina 21 UTC do 22 godzina 23 UTC
Wiatr 5 kt z kierunków zmiennych
Stopniowe zmiany
od 23 godzina 07 UTC do 23 godzina 09 UTC
Wiatr 10 kt od północny zachód

TAF: ENGM 2218/2318 23012KT CAVOK BECMG 2221/2223 VRB05KT BECMG 2307/2309 32010KT

Obserwacja i prognoza pogody dla ponad 4000 lotnisk (raport METAR i TAF).

Dostępne stacje oznaczono żółtymi i czerwonymi punktami na mapie.

Najedź kursorem aby zobaczyć nazwę stacji.

Kliknij aby zobaczyć obserwacje i prognozy pogody.

Aby zmienić mapę: kliknij na zielony przycisk z czarnym krzyżykiem, aby powiększyć; na zielony przycisk z myślnikiem, aby pomniejszyć; na zielone strzałki, aby przejść do map sąsiednich.


METAR-TAF: